Time;durP1;ratioP1;P1;durP2;ratioP2;P2;SDS_P1;SDS_P2;PMS_P1;PMS_P2;Temp;Humidity;BMP_temperature;BMP_pressure;BME280_temperature;BME280_humidity;BME280_pressure;Samples;Min_cycle;Max_cycle;Signal;HPM_P1;HPM_P2
2021/07/02 00:00:37;;;;;;;5.27;3.83;;;;;;;14.69;100.00;100573.63;5028074;28;20220;-77
2021/07/02 00:03:04;;;;;;;4.70;3.70;;;;;;;14.71;100.00;100569.16;5022263;28;20234;-79
2021/07/02 00:05:31;;;;;;;4.57;3.73;;;;;;;14.72;100.00;100568.22;5029708;28;20235;-78
2021/07/02 00:07:58;;;;;;;7.90;4.43;;;;;;;14.73;100.00;100576.03;5023593;28;20235;-77
2021/07/02 00:10:25;;;;;;;5.13;3.90;;;;;;;14.70;100.00;100580.56;5029058;28;20233;-79
2021/07/02 00:12:52;;;;;;;5.23;3.90;;;;;;;14.72;100.00;100578.72;5020658;28;20606;-77
2021/07/02 00:15:18;;;;;;;5.43;3.73;;;;;;;14.74;100.00;100575.13;5031240;28;20606;-78
2021/07/02 00:17:45;;;;;;;5.07;4.10;;;;;;;14.74;100.00;100576.91;5024627;28;20203;-77
2021/07/02 00:20:13;;;;;;;5.63;3.93;;;;;;;14.69;100.00;100573.63;5029037;28;20319;-76
2021/07/02 00:22:39;;;;;;;6.67;4.03;;;;;;;14.72;100.00;100578.72;5023656;28;20679;-78
2021/07/02 00:25:08;;;;;;;5.93;3.93;;;;;;;14.75;100.00;100571.56;5019667;28;20222;-77
2021/07/02 00:27:34;;;;;;;5.33;4.23;;;;;;;14.72;100.00;100573.47;5024089;28;20202;-78
2021/07/02 00:30:01;;;;;;;9.77;4.30;;;;;;;14.65;100.00;100567.66;5021296;28;20290;-77
2021/07/02 00:32:28;;;;;;;7.83;4.33;;;;;;;14.65;100.00;100572.03;5017796;28;20229;-78
2021/07/02 00:34:55;;;;;;;6.10;4.20;;;;;;;14.65;100.00;100566.78;5021721;28;20210;-78
2021/07/02 00:37:21;;;;;;;5.43;4.20;;;;;;;14.65;100.00;100566.78;5025463;28;20712;-79
2021/07/02 00:39:48;;;;;;;6.97;4.83;;;;;;;14.68;100.00;100578.00;5022205;28;20224;-78
2021/07/02 00:42:15;;;;;;;6.87;4.50;;;;;;;14.64;100.00;100573.81;5014851;28;20227;-78
2021/07/02 00:44:43;;;;;;;7.60;4.40;;;;;;;14.65;100.00;100566.78;5020312;28;20202;-77
2021/07/02 00:47:11;;;;;;;5.83;4.57;;;;;;;14.64;100.00;100573.81;5026601;28;20773;-78
2021/07/02 00:49:38;;;;;;;5.87;4.47;;;;;;;14.69;100.00;100577.09;5001539;28;20227;-78
2021/07/02 00:52:07;;;;;;;8.20;4.97;;;;;;;14.67;100.00;100567.56;5027578;28;20628;-77
2021/07/02 00:54:35;;;;;;;6.43;3.97;;;;;;;14.65;100.00;100575.53;5007133;28;20206;-78
2021/07/02 00:57:04;;;;;;;6.50;4.30;;;;;;;14.64;100.00;100567.72;5009932;28;20214;-79
2021/07/02 00:59:33;;;;;;;6.70;4.47;;;;;;;14.61;100.00;100562.63;5025150;28;20206;-79
2021/07/02 01:02:00;;;;;;;6.53;4.57;;;;;;;14.64;100.00;100558.09;5018444;28;22356;-80
2021/07/02 01:04:29;;;;;;;9.77;4.80;;;;;;;14.69;100.00;100560.50;5015259;28;20208;-78
2021/07/02 01:06:57;;;;;;;6.47;4.83;;;;;;;14.61;100.00;100560.00;5001852;28;20204;-79
2021/07/02 01:09:25;;;;;;;8.13;5.33;;;;;;;14.58;100.00;100559.22;5012153;28;20633;-79
2021/07/02 01:11:54;;;;;;;6.77;4.03;;;;;;;14.58;100.00;100556.59;5020120;28;20622;-78
2021/07/02 01:14:21;;;;;;;9.23;4.47;;;;;;;14.55;100.00;100556.69;5024797;28;20214;-79
2021/07/02 01:16:49;;;;;;;8.53;4.57;;;;;;;14.53;100.00;100552.44;5019783;28;20244;-79
2021/07/02 01:19:16;;;;;;;7.40;4.37;;;;;;;14.57;100.00;100540.88;5027044;28;20333;-78
2021/07/02 01:21:45;;;;;;;6.33;4.63;;;;;;;14.62;100.00;100552.06;5017540;28;20252;-78
2021/07/02 01:24:15;;;;;;;9.77;5.33;;;;;;;14.61;100.00;100550.34;5010441;28;20219;-78
2021/07/02 01:26:43;;;;;;;9.10;5.07;;;;;;;14.65;100.00;100546.69;5020123;28;20324;-79
2021/07/02 01:29:10;;;;;;;8.70;4.97;;;;;;;14.60;100.00;100545.16;5022471;28;20310;-78
2021/07/02 01:31:37;;;;;;;8.27;5.13;;;;;;;14.57;100.00;100552.22;5010336;28;20254;-78
2021/07/02 01:34:03;;;;;;;6.13;4.87;;;;;;;14.60;100.00;100550.41;5012692;28;20738;-79
2021/07/02 01:36:30;;;;;;;6.57;4.73;;;;;;;14.56;100.00;100549.66;5007404;28;20304;-79
2021/07/02 01:39:05;;;;;;;9.00;5.30;;;;;;;14.57;100.00;100541.72;5005960;28;20219;-78
2021/07/02 01:41:32;;;;;;;7.63;4.43;;;;;;;14.59;100.00;100549.56;5021820;28;20593;-79
2021/07/02 01:43:59;;;;;;;7.63;4.90;;;;;;;14.52;100.00;100545.47;5019110;28;20212;-77
2021/07/02 01:46:25;;;;;;;7.97;4.87;;;;;;;14.47;100.00;100548.28;5022032;28;20215;-80
2021/07/02 01:48:52;;;;;;;6.83;4.43;;;;;;;14.49;100.00;100546.47;5019358;28;20775;-77
2021/07/02 01:51:22;;;;;;;8.43;4.90;;;;;;;14.56;100.00;100544.41;5006717;28;20223;-80
2021/07/02 01:53:48;;;;;;;8.93;4.50;;;;;;;14.55;100.00;100553.22;5000365;28;20220;-78
2021/07/02 01:56:17;;;;;;;6.90;4.63;;;;;;;14.53;100.00;100550.66;5025986;28;20475;-78
2021/07/02 01:58:47;;;;;;;7.50;4.63;;;;;;;14.52;100.00;100548.94;5019909;28;20262;-78
2021/07/02 02:01:43;;;;;;;6.40;4.20;;;;;;;14.52;100.00;100548.09;5011266;28;20245;-78
2021/07/02 02:04:14;;;;;;;6.33;4.20;;;;;;;14.53;100.00;100552.44;5007317;28;20208;-78
2021/07/02 02:06:42;;;;;;;5.47;4.40;;;;;;;14.58;100.00;100555.72;5005873;28;20244;-78
2021/07/02 02:09:09;;;;;;;6.77;4.90;;;;;;;14.58;100.00;100550.47;5007935;28;20212;-79
2021/07/02 02:11:38;;;;;;;7.83;4.53;;;;;;;14.53;100.00;100547.19;5012430;28;20740;-79
2021/07/02 02:14:10;;;;;;;6.00;4.40;;;;;;;14.54;100.00;100549.72;5007023;28;20218;-78
2021/07/02 02:16:38;;;;;;;6.57;4.33;;;;;;;14.51;100.00;100546.38;5009226;28;20213;-79
2021/07/02 02:19:08;;;;;;;6.77;4.60;;;;;;;14.44;100.00;100547.56;5009941;28;20207;-78
2021/07/02 02:21:36;;;;;;;6.77;4.40;;;;;;;14.43;100.00;100549.34;5020789;28;20229;-78
2021/07/02 02:24:04;;;;;;;5.87;4.00;;;;;;;14.46;100.00;100540.47;5022847;28;20708;-78
2021/07/02 02:26:30;;;;;;;5.33;4.03;;;;;;;14.49;100.00;100537.72;5005145;28;20210;-79
2021/07/02 02:28:58;;;;;;;5.00;3.43;;;;;;;14.43;100.00;100538.00;5005570;28;20671;-78
2021/07/02 02:31:25;;;;;;;5.33;3.60;;;;;;;14.41;100.00;100534.59;5028550;28;20661;-78
2021/07/02 02:33:57;;;;;;;5.73;3.87;;;;;;;14.45;100.00;100536.16;5021153;28;20219;-79
2021/07/02 02:36:23;;;;;;;4.97;3.67;;;;;;;14.39;100.00;100538.13;5023611;28;20207;-78
2021/07/02 02:38:50;;;;;;;5.17;3.30;;;;;;;14.41;100.00;100543.31;5018642;28;20241;-78
2021/07/02 02:41:17;;;;;;;4.37;3.50;;;;;;;14.41;100.00;100538.06;5031056;28;20255;-79
2021/07/02 02:43:43;;;;;;;3.63;3.00;;;;;;;14.41;100.00;100543.31;5019533;28;20309;-80
2021/07/02 02:46:11;;;;;;;4.27;3.10;;;;;;;14.34;100.00;100541.88;5015257;28;20206;-79
2021/07/02 02:48:38;;;;;;;3.80;2.90;;;;;;;14.34;100.00;100547.13;5024367;28;20615;-79
2021/07/02 02:51:08;;;;;;;3.67;3.07;;;;;;;14.35;100.00;100544.44;5035412;28;20230;-79
2021/07/02 02:53:35;;;;;;;4.47;2.57;;;;;;;14.36;100.00;100550.53;5012155;28;20709;-79
2021/07/02 02:56:02;;;;;;;4.37;2.40;;;;;;;14.39;100.00;100553.03;5012889;28;20230;-78
2021/07/02 02:58:29;;;;;;;3.67;2.70;;;;;;;14.44;100.00;100548.44;5033472;28;20227;-78
2021/07/02 03:00:56;;;;;;;2.93;2.63;;;;;;;14.37;100.00;100549.59;5014225;28;20217;-79
2021/07/02 03:03:24;;;;;;;3.00;2.40;;;;;;;14.32;100.00;100541.94;5029656;28;20204;-78
2021/07/02 03:05:51;;;;;;;3.93;2.40;;;;;;;14.35;100.00;100549.69;5009349;28;20283;-79
2021/07/02 03:08:18;;;;;;;2.53;2.27;;;;;;;14.38;100.00;100553.94;5018016;28;20283;-79
2021/07/02 03:10:52;;;;;;;3.67;2.80;;;;;;;14.34;100.00;100555.00;5011973;28;20203;-79
2021/07/02 03:13:18;;;;;;;2.63;2.00;;;;;;;14.39;100.00;100555.66;5034476;28;20221;-78
2021/07/02 03:15:45;;;;;;;2.17;1.90;;;;;;;14.32;100.00;100557.69;5027725;28;20211;-78
2021/07/02 03:18:12;;;;;;;2.00;1.70;;;;;;;14.35;100.00;100554.06;5016178;28;20207;-78
2021/07/02 03:20:41;;;;;;;4.17;1.97;;;;;;;14.40;100.00;100559.97;5012736;28;20420;-78
2021/07/02 03:23:08;;;;;;;2.63;2.13;;;;;;;14.48;100.00;100557.03;5015024;28;20234;-77
2021/07/02 03:25:35;;;;;;;1.77;1.67;;;;;;;14.45;100.00;100557.16;5026159;28;20318;-78
2021/07/02 03:28:05;;;;;;;2.07;1.87;;;;;;;14.46;100.00;100569.34;5026553;28;20621;-78
2021/07/02 03:30:32;;;;;;;2.20;1.80;;;;;;;14.46;100.00;100558.84;5023501;28;20215;-78
2021/07/02 03:32:58;;;;;;;1.90;1.70;;;;;;;14.43;100.00;100562.47;5012016;28;20256;-77
2021/07/02 03:35:25;;;;;;;2.13;1.67;;;;;;;14.48;100.00;100560.50;5032293;28;20209;-79
2021/07/02 03:37:53;;;;;;;3.83;2.00;;;;;;;14.51;100.00;100572.59;5012975;28;20204;-77
2021/07/02 03:40:19;;;;;;;3.27;1.73;;;;;;;14.47;100.00;100569.28;5033507;28;20710;-78
2021/07/02 03:42:52;;;;;;;2.03;1.87;;;;;;;14.55;100.00;100561.09;5025159;28;20231;-78
2021/07/02 03:45:19;;;;;;;1.77;1.60;;;;;;;14.45;100.00;100559.78;5039238;28;20204;-78
2021/07/02 03:47:45;;;;;;;2.60;1.60;;;;;;;14.48;100.00;100564.91;5023741;28;20278;-78
2021/07/02 03:50:12;;;;;;;1.60;1.50;;;;;;;14.46;100.00;100564.97;5030277;28;20216;-78
2021/07/02 03:52:39;;;;;;;1.53;1.43;;;;;;;14.49;100.00;100562.22;5023800;28;20253;-78
2021/07/02 03:55:09;;;;;;;2.17;1.70;;;;;;;14.52;100.00;100567.31;5028957;28;20209;-78
2021/07/02 03:57:35;;;;;;;1.60;1.47;;;;;;;14.49;100.00;100567.47;5024652;28;20203;-78
2021/07/02 04:00:01;;;;;;;1.80;1.50;;;;;;;14.51;100.00;100563.00;5023891;28;20210;-78
2021/07/02 04:02:29;;;;;;;1.63;1.43;;;;;;;14.56;100.00;100566.28;5023388;28;20741;-78
2021/07/02 04:04:55;;;;;;;1.40;1.30;;;;;;;14.58;100.00;100569.69;5023271;28;20220;-77
2021/07/02 04:07:24;;;;;;;1.73;1.63;;;;;;;14.65;100.00;100578.16;5026035;28;20213;-78
2021/07/02 04:09:50;;;;;;;2.70;1.47;;;;;;;14.60;100.00;100574.00;5022227;28;20212;-78
2021/07/02 04:12:18;;;;;;;3.60;1.30;;;;;;;14.62;100.00;100582.69;5034155;28;20224;-78
2021/07/02 04:14:44;;;;;;;2.77;1.30;;;;;;;14.63;100.00;100582.59;5023952;28;20233;-78
2021/07/02 04:17:11;;;;;;;1.57;1.43;;;;;;;14.61;100.00;100575.72;5027169;28;20296;-79
2021/07/02 04:19:38;;;;;;;1.50;1.40;;;;;;;14.61;100.00;100586.22;5019827;28;20242;-78
2021/07/02 04:22:06;;;;;;;1.47;1.37;;;;;;;14.61;100.00;100580.97;5029319;28;20232;-78
2021/07/02 04:24:33;;;;;;;1.47;1.37;;;;;;;14.58;100.00;100574.06;5023708;28;20327;-78
2021/07/02 04:26:59;;;;;;;1.33;1.20;;;;;;;14.55;100.00;100588.16;5029197;28;20200;-77
2021/07/02 04:29:27;;;;;;;2.23;1.10;;;;;;;14.56;100.00;100584.63;5027918;28;20204;-78
2021/07/02 04:31:54;;;;;;;1.20;1.10;;;;;;;14.64;100.00;100593.97;5025061;28;20219;-78
2021/07/02 04:34:20;;;;;;;1.20;1.10;;;;;;;14.60;100.00;100582.75;5022553;28;20220;-78
2021/07/02 04:36:46;;;;;;;1.27;1.17;;;;;;;14.60;100.00;100584.50;5026481;28;20569;-78
2021/07/02 04:39:13;;;;;;;1.33;1.07;;;;;;;14.65;100.00;100583.41;5023521;28;20214;-78
2021/07/02 04:41:40;;;;;;;1.20;1.10;;;;;;;14.61;100.00;100584.44;5024196;28;20234;-78
2021/07/02 04:44:06;;;;;;;1.00;1.00;;;;;;;14.61;100.00;100586.22;5025636;28;20869;-78
2021/07/02 04:46:34;;;;;;;2.47;1.10;;;;;;;14.61;100.00;100583.59;5022750;28;20253;-77
2021/07/02 04:49:01;;;;;;;1.30;1.20;;;;;;;14.62;100.00;100590.56;5027894;28;20248;-78
2021/07/02 04:51:27;;;;;;;1.30;1.20;;;;;;;14.58;100.00;100581.94;5021597;28;20264;-79
2021/07/02 04:53:53;;;;;;;1.50;1.40;;;;;;;14.58;100.00;100589.81;5026878;28;20240;-78
2021/07/02 04:56:20;;;;;;;1.20;1.10;;;;;;;14.60;100.00;100584.50;5005630;28;20246;-78
2021/07/02 04:58:51;;;;;;;1.60;1.20;;;;;;;14.64;100.00;100589.56;5028038;28;20292;-78
2021/07/02 05:01:18;;;;;;;1.70;1.60;;;;;;;14.58;100.00;100584.56;5020322;28;20553;-77
2021/07/02 05:03:45;;;;;;;2.13;1.57;;;;;;;14.62;100.00;100588.78;5025861;28;20669;-77
2021/07/02 05:06:12;;;;;;;2.17;1.53;;;;;;;14.67;100.00;100586.81;5009673;28;20303;-78
2021/07/02 05:08:38;;;;;;;2.87;1.40;;;;;;;14.70;100.00;100591.06;5029461;28;20647;-77
2021/07/02 05:11:05;;;;;;;1.50;1.40;;;;;;;14.72;100.00;100594.47;5016220;28;20617;-78
2021/07/02 05:13:32;;;;;;;1.97;1.60;;;;;;;14.71;100.00;100591.00;5025074;28;20210;-78
2021/07/02 05:15:58;;;;;;;1.80;1.50;;;;;;;14.73;100.00;100596.19;5007216;28;20301;-79
2021/07/02 05:18:24;;;;;;;1.50;1.40;;;;;;;14.74;100.00;100597.91;5022056;28;20239;-79
2021/07/02 05:20:53;;;;;;;2.97;1.73;;;;;;;14.77;100.00;100605.63;5007338;28;20729;-79
2021/07/02 05:23:19;;;;;;;2.43;1.80;;;;;;;14.85;100.00;100603.53;5018255;28;20207;-78
2021/07/02 05:25:46;;;;;;;3.17;2.10;;;;;;;14.86;100.00;100607.88;5030676;28;20283;-79
2021/07/02 05:28:12;;;;;;;4.00;2.30;;;;;;;14.91;100.00;100610.25;5019334;28;20200;-79
2021/07/02 05:30:38;;;;;;;4.93;2.43;;;;;;;14.95;100.00;100607.44;5026405;28;20237;-79
2021/07/02 05:33:05;;;;;;;2.40;2.20;;;;;;;14.95;100.00;100606.56;5017972;28;20218;-78
2021/07/02 05:35:32;;;;;;;4.93;3.10;;;;;;;14.94;100.00;100605.72;5024346;28;20297;-79
2021/07/02 05:37:59;;;;;;;7.27;3.50;;;;;;;14.99;100.00;100608.16;5020138;28;20576;-77
2021/07/02 05:40:26;;;;;;;6.30;4.00;;;;;;;15.03;100.00;100608.88;5024328;28;20241;-78
2021/07/02 05:42:52;;;;;;;10.67;4.57;;;;;;;15.06;100.00;100608.75;5020689;28;20234;-77
2021/07/02 05:45:18;;;;;;;7.67;4.40;;;;;;;15.07;100.00;100607.81;5022298;28;20268;-78
2021/07/02 05:47:48;;;;;;;9.33;4.27;;;;;;;15.09;100.00;100608.59;5025852;28;20558;-78
2021/07/02 05:50:15;;;;;;;8.90;4.80;;;;;;;15.08;100.00;100613.00;5021614;28;20245;-78
2021/07/02 05:52:42;;;;;;;9.93;6.10;;;;;;;15.12;100.00;100614.53;5010381;28;20222;-78
2021/07/02 05:55:12;;;;;;;9.03;5.40;;;;;;;15.16;100.00;100615.25;5021517;28;20205;-78
2021/07/02 05:57:38;;;;;;;14.43;6.43;;;;;;;15.21;100.00;100609.81;5023589;28;20213;-77
2021/07/02 06:00:06;;;;;;;11.87;6.13;;;;;;;15.22;100.00;100612.38;5019317;28;20338;-77
2021/07/02 06:02:32;;;;;;;12.97;6.37;;;;;;;15.24;100.00;100614.94;5027134;28;20227;-78
2021/07/02 06:04:59;;;;;;;10.77;6.30;;;;;;;15.30;100.00;100617.25;5017813;28;20215;-76
2021/07/02 06:07:25;;;;;;;13.00;6.37;;;;;;;15.36;100.00;100617.00;5027071;28;20216;-76
2021/07/02 06:09:52;;;;;;;14.20;7.53;;;;;;;15.40;100.00;100620.31;5018600;28;20210;-76
2021/07/02 06:12:19;;;;;;;15.23;8.30;;;;;;;15.36;100.00;100619.63;5025641;28;20239;-77
2021/07/02 06:14:46;;;;;;;15.23;7.90;;;;;;;15.41;100.00;100622.00;5019796;28;20214;-77
2021/07/02 06:17:12;;;;;;;14.40;7.67;;;;;;;15.40;100.00;100623.78;5021763;28;20207;-77
2021/07/02 06:19:38;;;;;;;17.57;8.90;;;;;;;15.38;100.00;100624.81;5021795;28;20218;-76
2021/07/02 06:22:05;;;;;;;15.87;8.57;;;;;;;15.41;100.00;100620.25;5023235;28;20338;-77
2021/07/02 06:24:31;;;;;;;17.90;9.17;;;;;;;15.49;100.00;100627.78;5019354;28;20297;-77
2021/07/02 06:26:58;;;;;;;19.27;9.83;;;;;;;15.53;100.00;100622.31;5018143;28;20214;-77
2021/07/02 06:29:25;;;;;;;18.73;9.67;;;;;;;15.60;100.00;100627.25;5026284;28;20521;-77
2021/07/02 06:31:52;;;;;;;22.07;11.70;;;;;;;15.61;100.00;100626.34;5017612;28;20231;-76
2021/07/02 06:34:18;;;;;;;24.17;11.57;;;;;;;15.61;100.00;100637.72;5026261;28;20211;-77
2021/07/02 06:36:44;;;;;;;20.53;12.03;;;;;;;15.68;100.00;100639.13;5016947;28;20231;-78
2021/07/02 06:39:11;;;;;;;23.13;11.83;;;;;;;15.71;100.00;100644.25;5023791;28;20218;-77
2021/07/02 06:41:38;;;;;;;23.83;11.93;;;;;;;15.73;100.00;100644.19;5015505;28;20227;-76
2021/07/02 06:44:05;;;;;;;25.97;13.23;;;;;;;15.78;100.00;100638.75;5028508;28;20665;-78
2021/07/02 06:46:33;;;;;;;28.17;12.33;;;;;;;15.77;100.00;100644.91;5018561;28;20368;-78
2021/07/02 06:48:59;;;;;;;24.80;12.37;;;;;;;15.82;100.00;100642.91;5022537;28;20693;-77
2021/07/02 06:51:26;;;;;;;26.60;12.90;;;;;;;15.82;100.00;100648.19;5021874;28;20231;-78
2021/07/02 06:53:52;;;;;;;22.10;12.30;;;;;;;15.82;100.00;100642.91;5020613;28;20208;-77
2021/07/02 06:56:19;;;;;;;26.17;13.97;;;;;;;15.85;100.00;100642.78;5024720;28;20200;-77
2021/07/02 06:58:49;;;;;;;23.03;12.57;;;;;;;15.85;100.00;100648.03;5022223;28;20823;-77
2021/07/02 07:01:15;;;;;;;23.97;12.47;;;;;;;15.90;100.00;100651.31;5024594;28;20267;-77
2021/07/02 07:03:43;;;;;;;24.93;13.43;;;;;;;15.96;100.00;100658.88;5018897;28;20207;-77
2021/07/02 07:06:09;;;;;;;25.97;13.10;;;;;;;16.02;100.00;100653.34;5024080;28;20202;-78
2021/07/02 07:08:36;;;;;;;26.43;13.43;;;;;;;16.09;100.00;100654.75;5018757;28;20580;-78
2021/07/02 07:11:02;;;;;;;21.47;13.70;;;;;;;16.24;100.00;100658.38;5013493;28;20325;-77
2021/07/02 07:13:28;;;;;;;22.13;13.23;;;;;;;16.38;100.00;100665.59;5017247;28;20228;-78
2021/07/02 07:15:55;;;;;;;27.43;13.70;;;;;;;16.51;100.00;100663.19;5028146;28;20665;-77
2021/07/02 07:18:22;;;;;;;23.93;13.20;;;;;;;16.59;100.00;100666.31;5022438;28;20202;-77
2021/07/02 07:20:50;;;;;;;22.40;13.40;;;;;;;16.63;100.00;100670.47;5022025;28;20210;-77
2021/07/02 07:23:16;;;;;;;22.27;13.07;;;;;;;16.69;100.00;100671.09;5019647;28;20254;-77
2021/07/02 07:25:43;;;;;;;21.67;12.83;;;;;;;16.76;100.00;100667.22;5018819;28;20605;-77
2021/07/02 07:28:09;;;;;;;22.07;13.20;;;;;;;16.86;100.00;100673.75;5023258;28;20202;-77
2021/07/02 07:30:36;;;;;;;23.17;13.33;;;;;;;16.92;100.00;100678.72;5023178;28;20725;-77
2021/07/02 07:33:03;;;;;;;21.93;13.30;;;;;;;16.98;100.00;100672.28;5024124;28;20228;-78
2021/07/02 07:35:32;;;;;;;17.63;11.87;;;;;;;17.05;100.00;100668.38;5017759;28;20208;-78
2021/07/02 07:38:00;;;;;;;19.83;12.43;;;;;;;17.06;100.00;100683.25;5031795;28;20234;-77
2021/07/02 07:40:30;;;;;;;18.93;11.57;;;;;;;17.02;100.00;100679.06;5020436;28;20207;-77
2021/07/02 07:42:57;;;;;;;19.17;12.20;;;;;;;17.04;100.00;100671.94;5027354;28;20230;-77
2021/07/02 07:45:24;;;;;;;19.63;13.20;;;;;;;17.03;100.00;100676.38;5019509;28;20218;-77
2021/07/02 07:47:51;;;;;;;19.80;11.87;;;;;;;17.00;100.00;100678.31;5022038;28;20208;-77
2021/07/02 07:50:20;;;;;;;20.57;12.20;;;;;;;16.98;100.00;100680.16;5023820;28;20218;-77
2021/07/02 07:52:52;;;;;;;18.77;11.87;;;;;;;16.96;100.00;100685.53;5026966;28;20776;-77
2021/07/02 07:55:20;;;;;;;17.33;11.87;;;;;;;16.98;100.00;100685.44;5012021;28;20210;-77
2021/07/02 07:57:46;;;;;;;18.93;11.33;;;;;;;17.03;100.00;100686.06;5027921;28;20204;-78
2021/07/02 08:00:14;;;;;;;20.87;11.90;;;;;;;17.09;100.00;100685.72;5022173;28;20549;-78
2021/07/02 08:02:40;;;;;;;19.30;11.67;;;;;;;17.23;100.00;100685.00;5022694;28;20690;-78
2021/07/02 08:05:07;;;;;;;18.97;12.17;;;;;;;17.41;100.00;100686.66;5026391;28;20200;-78
2021/07/02 08:07:37;;;;;;;22.77;12.27;;;;;;;17.51;100.00;100689.63;5021005;28;20200;-77
2021/07/02 08:10:06;;;;;;;17.33;11.77;;;;;;;17.83;100.00;100689.66;5025024;28;20302;-78
2021/07/02 08:12:34;;;;;;;20.70;12.17;;;;;;;17.89;100.00;100691.16;5021191;28;20347;-77
2021/07/02 08:15:00;;;;;;;19.97;11.67;;;;;;;18.03;100.00;100690.34;5025712;28;20298;-77
2021/07/02 08:17:29;;;;;;;16.87;11.63;;;;;;;18.06;100.00;100688.41;5019810;28;20596;-77
2021/07/02 08:19:56;;;;;;;18.63;11.60;;;;;;;18.19;100.00;100679.78;5025326;28;20291;-77
2021/07/02 08:22:22;;;;;;;17.33;10.43;;;;;;;18.10;100.00;100678.53;5022093;28;20255;-77
2021/07/02 08:24:49;;;;;;;15.60;10.33;;;;;;;18.35;100.00;100681.47;5027148;28;20686;-77
2021/07/02 08:27:15;;;;;;;17.23;10.87;;;;;;;18.50;100.00;100676.22;5023049;28;20568;-77
2021/07/02 08:29:42;;;;;;;16.87;10.93;;;;;;;18.53;100.00;100682.19;5025445;28;20246;-77
2021/07/02 08:32:08;;;;;;;13.67;10.67;;;;;;;18.50;100.00;100686.78;5026585;28;20221;-77
2021/07/02 08:34:35;;;;;;;11.43;8.77;;;;;;;18.50;100.00;100692.94;5023380;28;20300;-77
2021/07/02 08:37:02;;;;;;;14.50;9.03;;;;;;;18.55;100.00;100688.22;5025158;28;20200;-78
2021/07/02 08:39:28;;;;;;;12.77;9.20;;;;;;;18.54;100.00;100696.25;5021376;28;20212;-78
2021/07/02 08:41:55;;;;;;;12.87;8.57;;;;;;;18.58;100.00;100697.75;5027828;28;20211;-77
2021/07/02 08:44:21;;;;;;;10.27;8.20;;;;;;;18.66;100.00;100697.31;5008690;28;20302;-77
2021/07/02 08:46:51;;;;;;;13.10;9.27;;;;;;;18.68;99.15;100692.78;5025884;28;20207;-77
2021/07/02 08:49:18;;;;;;;14.17;10.10;;;;;;;18.77;100.00;100692.25;5019767;28;20200;-77
2021/07/02 08:51:44;;;;;;;14.13;9.67;;;;;;;18.80;97.60;100702.63;5029126;28;20226;-77
2021/07/02 08:54:14;;;;;;;12.53;9.20;;;;;;;19.00;97.89;100692.72;5022476;28;20203;-78
2021/07/02 08:56:42;;;;;;;12.20;9.20;;;;;;;19.05;96.77;100698.53;5026810;28;20192;-77
2021/07/02 08:59:08;;;;;;;14.13;8.23;;;;;;;19.17;97.29;100694.31;5018517;28;20204;-78
2021/07/02 09:01:38;;;;;;;13.80;9.37;;;;;;;19.15;92.89;100704.13;5026289;28;20224;-78
2021/07/02 09:04:20;;;;;;;13.87;8.87;;;;;;;19.23;93.95;100696.59;5026302;28;20246;-78
2021/07/02 09:07:00;;;;;;;10.60;8.30;;;;;;;19.36;96.75;100691.38;5022717;28;20205;-78
2021/07/02 09:09:46;;;;;;;14.47;10.07;;;;;;;19.17;95.71;100699.59;5027954;28;20529;-78
2021/07/02 09:12:13;;;;;;;15.83;10.33;;;;;;;19.11;96.23;100695.53;5018564;28;20695;-77
2021/07/02 09:14:39;;;;;;;13.80;9.80;;;;;;;19.04;94.95;100700.34;5027066;28;20245;-77
2021/07/02 09:17:09;;;;;;;14.40;10.53;;;;;;;19.02;94.65;100701.38;5017828;28;20199;-78
2021/07/02 09:19:37;;;;;;;12.40;9.43;;;;;;;19.02;95.34;100698.75;5022686;28;20209;-79
2021/07/02 09:22:15;;;;;;;12.50;9.10;;;;;;;19.08;92.77;100693.94;5007510;28;20638;-77
2021/07/02 09:24:43;;;;;;;12.47;9.57;;;;;;;19.20;92.07;100702.91;5022922;28;20264;-78
2021/07/02 09:27:23;;;;;;;11.37;9.30;;;;;;;19.27;92.39;100692.81;5013499;28;20286;-77
2021/07/02 09:30:01;;;;;;;12.57;8.53;;;;;;;19.32;91.46;100682.81;5020491;28;20258;-77
2021/07/02 09:32:29;;;;;;;14.27;9.73;;;;;;;19.45;91.61;100696.09;5030172;28;20222;-77
2021/07/02 09:34:59;;;;;;;11.67;8.60;;;;;;;19.61;89.30;100698.63;5017485;28;20208;-77
2021/07/02 09:37:27;;;;;;;10.00;8.07;;;;;;;19.69;89.32;100696.38;5023143;28;20211;-77
2021/07/02 09:39:54;;;;;;;10.73;7.97;;;;;;;19.91;86.50;100695.88;5020259;28;20243;-78
2021/07/02 09:42:26;;;;;;;11.60;7.90;;;;;;;20.11;85.59;100688.47;5024811;28;20318;-78
2021/07/02 09:45:12;;;;;;;8.90;7.37;;;;;;;20.45;86.43;100686.22;5024430;28;20831;-77
2021/07/02 09:47:40;;;;;;;11.27;7.73;;;;;;;20.62;85.51;100696.56;5018800;28;20236;-77
2021/07/02 09:50:26;;;;;;;9.37;6.70;;;;;;;20.55;80.81;100709.34;5024309;28;20295;-77
2021/07/02 09:52:56;;;;;;;9.37;6.43;;;;;;;20.40;81.32;100705.06;5016382;28;20227;-77
2021/07/02 09:55:24;;;;;;;9.97;7.00;;;;;;;20.20;82.01;100709.03;5008208;28;20208;-78
2021/07/02 09:58:02;;;;;;;11.20;7.17;;;;;;;20.05;84.16;100697.63;5021571;28;20938;-78
2021/07/02 10:00:28;;;;;;;10.57;7.53;;;;;;;19.90;83.70;100696.81;5018481;28;20269;-77
2021/07/02 10:02:56;;;;;;;8.30;6.50;;;;;;;19.79;85.84;100699.31;5019827;28;20215;-77
2021/07/02 10:05:25;;;;;;;9.30;6.47;;;;;;;19.87;83.24;100710.25;5020763;28;20319;-78
2021/07/02 10:07:56;;;;;;;10.33;6.40;;;;;;;20.35;84.48;100704.50;5020578;28;20234;-77
2021/07/02 10:10:23;;;;;;;9.70;7.40;;;;;;;20.66;77.74;100711.31;5020321;28;20204;-77
2021/07/02 10:12:50;;;;;;;9.27;6.03;;;;;;;20.86;77.74;100706.44;5017133;28;20215;-77
2021/07/02 10:15:17;;;;;;;9.40;6.40;;;;;;;21.21;79.13;100706.66;5004950;28;20287;-77
2021/07/02 10:17:44;;;;;;;8.33;6.93;;;;;;;21.29;76.33;100716.75;5022713;28;20569;-78
2021/07/02 10:20:12;;;;;;;8.73;6.27;;;;;;;21.41;76.49;100707.09;5020083;28;20244;-78
2021/07/02 10:22:41;;;;;;;8.70;6.90;;;;;;;21.42;77.89;100706.97;5024408;28;20232;-78
2021/07/02 10:25:09;;;;;;;8.37;6.17;;;;;;;21.62;75.55;100707.41;5019946;28;20192;-78
2021/07/02 10:27:37;;;;;;;10.13;6.70;;;;;;;21.78;72.88;100707.16;5023727;28;20569;-78
2021/07/02 10:30:03;;;;;;;8.20;6.40;;;;;;;21.93;72.79;100698.94;5006589;28;20289;-78
2021/07/02 10:32:32;;;;;;;9.27;6.00;;;;;;;22.10;74.87;100697.69;5008646;28;20227;-77
2021/07/02 10:34:59;;;;;;;6.93;6.10;;;;;;;22.12;73.07;100709.03;5019083;28;21489;-78
2021/07/02 10:37:27;;;;;;;6.50;5.33;;;;;;;21.96;69.96;100716.44;5019128;28;20207;-78
2021/07/02 10:39:55;;;;;;;7.10;5.22;;;;;;;22.06;71.63;100719.28;5024185;28;20227;-78
2021/07/02 10:42:21;;;;;;;9.10;5.80;;;;;;;22.13;73.49;100708.09;5021032;28;20219;-77
2021/07/02 10:45:10;;;;;;;5.95;5.32;;;;;;;22.16;70.91;100717.63;5025402;28;20591;-78
2021/07/02 10:47:52;;;;;;;7.72;5.35;;;;;;;22.04;69.30;100722.06;5017937;28;20215;-77
2021/07/02 10:50:40;;;;;;;7.85;5.28;;;;;;;21.89;68.77;100729.31;5028578;28;20604;-78
2021/07/02 10:53:27;;;;;;;5.50;4.72;;;;;;;21.68;68.67;100715.78;5018968;28;20310;-78
2021/07/02 10:55:56;;;;;;;6.43;5.45;;;;;;;21.80;72.95;100714.06;5021627;28;20701;-77
2021/07/02 10:58:23;;;;;;;6.43;5.07;;;;;;;21.70;71.20;100719.16;5030824;28;20657;-78
2021/07/02 11:01:09;;;;;;;6.18;4.85;;;;;;;21.51;67.98;100724.06;5022057;28;20211;-77
2021/07/02 11:03:36;;;;;;;5.63;5.00;;;;;;;21.42;69.56;100714.94;5026206;28;20514;-78
2021/07/02 11:06:39;;;;;;;6.75;5.85;;;;;;;21.86;70.14;100726.03;5021819;28;20225;-77
2021/07/02 11:09:05;;;;;;;7.18;5.40;;;;;;;21.94;69.01;100721.03;5022521;28;20206;-77
2021/07/02 11:12:12;;;;;;;11.37;6.17;;;;;;;22.08;69.33;100718.19;5017581;28;21467;-77
2021/07/02 11:15:10;;;;;;;6.40;5.57;;;;;;;21.96;69.41;100723.56;5020286;28;20299;-77
2021/07/02 11:17:38;;;;;;;5.07;4.45;;;;;;;21.83;69.43;100720.94;5027768;28;20687;-78
2021/07/02 11:20:27;;;;;;;6.95;5.05;;;;;;;21.61;68.17;100729.59;5022969;28;20667;-77